Aroma Park, Illinois
Current Conditions -  °F | °C
As of 11:15 PM on Friday 24 Oct 2014 (Local Time) from KIKK Reporting Station
Overcast Overcast  
Wind Chill: 58°   Ceiling: 4200
Heat Index: 58°   Visibility: 10mi
Dew Point: 54°   Wind: 5mph
Humidity: 86%   Direction: 190°S
Pressure: 29.96"   Gusts: NA
Location:  41.08°N, 87.81°W
Report Text: KIKK 250415Z AUTO 19004KT 10SM OVC042 14/12 A2996 RMK AO2 T01430120
Loading
Personal Weather Stations






























Interactive Weather Map New forecast layout! Learn more

10-Day Weather Forecast

Advertisements
Track Severe Weather on mobile